createdAt,value
2023-05-05T00:00:04.892Z,25.12
2023-05-05T00:01:04.894Z,25.15
2023-05-05T00:02:04.902Z,25.13
2023-05-05T00:03:04.920Z,25.13
2023-05-05T00:04:04.951Z,25.15
2023-05-05T00:05:04.900Z,25.15
2023-05-05T00:06:05.017Z,25.13
2023-05-05T00:07:04.987Z,25.18
2023-05-05T00:08:04.997Z,25.15
2023-05-05T00:09:05.025Z,25.15
2023-05-05T00:10:05.081Z,25.13
2023-05-05T00:11:05.063Z,25.15
2023-05-05T00:12:05.122Z,25.16
2023-05-05T00:13:05.194Z,25.15
2023-05-05T00:14:05.117Z,25.15
2023-05-05T00:15:05.127Z,25.15
2023-05-05T00:16:05.152Z,25.15
2023-05-05T00:17:05.262Z,25.13
2023-05-05T00:18:05.279Z,25.16
2023-05-05T00:19:05.201Z,25.16
2023-05-05T00:20:05.325Z,25.15
2023-05-05T00:21:05.255Z,25.15
2023-05-05T00:22:05.263Z,25.15
2023-05-05T00:23:05.382Z,25.16
2023-05-05T00:24:05.454Z,25.15
2023-05-05T00:25:05.581Z,25.16
2023-05-05T00:26:05.798Z,25.13
2023-05-05T00:27:05.664Z,25.15
2023-05-05T00:28:05.671Z,25.13
2023-05-05T00:29:05.704Z,25.13
2023-05-05T00:30:05.831Z,25.13
2023-05-05T00:31:05.773Z,25.15
2023-05-05T00:32:05.758Z,25.15
2023-05-05T00:33:05.794Z,25.12
2023-05-05T00:34:05.789Z,25.12
2023-05-05T00:35:05.822Z,25.13
2023-05-05T00:36:05.799Z,25.15
2023-05-05T00:37:05.801Z,25.13
2023-05-05T00:38:05.876Z,25.12
2023-05-05T00:39:05.990Z,25.13
2023-05-05T00:40:06.232Z,25.13
2023-05-05T00:41:06.018Z,25.12
2023-05-05T00:42:06.040Z,25.13
2023-05-05T00:43:06.069Z,25.13
2023-05-05T00:44:06.038Z,25.12
2023-05-05T00:45:06.052Z,25.13
2023-05-05T00:46:06.109Z,25.12
2023-05-05T00:47:06.191Z,25.11
2023-05-05T00:48:06.288Z,25.12
2023-05-05T00:49:06.276Z,25.15
2023-05-05T00:50:06.643Z,25.12
2023-05-05T00:51:06.272Z,25.13
2023-05-05T00:52:06.335Z,25.11
2023-05-05T00:53:06.297Z,25.12
2023-05-05T00:54:06.283Z,25.12
2023-05-05T00:55:06.316Z,25.12
2023-05-05T00:56:06.411Z,25.16
2023-05-05T00:57:06.391Z,25.12
2023-05-05T00:58:06.421Z,25.12
2023-05-05T00:59:06.431Z,25.12
2023-05-05T01:00:06.688Z,25.13
2023-05-05T01:01:06.541Z,25.12
2023-05-05T01:02:06.563Z,25.12
2023-05-05T01:03:06.659Z,25.13
2023-05-05T01:04:06.763Z,25.13
2023-05-05T01:05:06.594Z,25.13
2023-05-05T01:06:06.606Z,25.13
2023-05-05T01:07:06.732Z,25.12
2023-05-05T01:08:06.723Z,25.13
2023-05-05T01:09:06.779Z,25.11
2023-05-05T01:10:18.981Z,25.13
2023-05-05T01:11:07.797Z,25.13
2023-05-05T01:12:06.788Z,25.12
2023-05-05T01:13:06.809Z,25.12
2023-05-05T01:14:06.756Z,25.12
2023-05-05T01:15:06.759Z,25.13
2023-05-05T01:16:06.790Z,25.12
2023-05-05T01:17:06.707Z,25.12
2023-05-05T01:18:06.905Z,25.15
2023-05-05T01:19:06.680Z,25.13
2023-05-05T01:20:06.788Z,25.11
2023-05-05T01:21:06.672Z,25.13
2023-05-05T01:22:06.667Z,25.12
2023-05-05T01:23:06.652Z,25.13
2023-05-05T01:24:06.640Z,25.12
2023-05-05T01:25:06.672Z,25.12
2023-05-05T01:26:06.627Z,25.12
2023-05-05T01:27:06.646Z,25.12
2023-05-05T01:28:06.608Z,25.12
2023-05-05T01:29:06.606Z,25.12
2023-05-05T01:30:06.743Z,25.12
2023-05-05T01:31:06.595Z,25.09
2023-05-05T01:32:06.602Z,25.13
2023-05-05T01:33:06.604Z,25.12
2023-05-05T01:34:06.617Z,25.11
2023-05-05T01:35:06.626Z,25.11
2023-05-05T01:36:06.637Z,25.09
2023-05-05T01:37:06.634Z,25.11
2023-05-05T01:38:06.838Z,25.11
2023-05-05T01:39:06.696Z,25.12
2023-05-05T01:40:06.979Z,25.08
2023-05-05T01:41:06.747Z,25.12
2023-05-05T01:42:06.761Z,25.09
2023-05-05T01:43:06.797Z,25.12
2023-05-05T01:44:06.797Z,25.12
2023-05-05T01:45:06.829Z,25.09
2023-05-05T01:46:06.836Z,25.11
2023-05-05T01:47:06.815Z,25.11
2023-05-05T01:48:06.835Z,25.11
2023-05-05T01:49:06.885Z,25.11
2023-05-05T01:50:07.017Z,25.11
2023-05-05T01:51:06.931Z,25.09
2023-05-05T01:52:06.949Z,25.11
2023-05-05T01:53:06.967Z,25.08
2023-05-05T01:54:06.969Z,25.09
2023-05-05T01:55:06.989Z,25.09
2023-05-05T01:56:07.007Z,25.09
2023-05-05T01:57:06.974Z,25.09
2023-05-05T01:58:07.015Z,25.11
2023-05-05T01:59:07.051Z,25.11
2023-05-05T02:00:07.286Z,25.09
2023-05-05T02:01:07.071Z,25.08
2023-05-05T02:02:07.094Z,25.09
2023-05-05T02:03:07.181Z,25.09
2023-05-05T02:04:07.122Z,25.08
2023-05-05T02:05:07.136Z,25.09
2023-05-05T02:06:07.218Z,25.09
2023-05-05T02:07:07.208Z,25.11
2023-05-05T02:08:07.236Z,25.09
2023-05-05T02:09:07.245Z,25.08
2023-05-05T02:10:07.468Z,25.09
2023-05-05T02:11:07.282Z,25.11
2023-05-05T02:12:07.394Z,25.09
2023-05-05T02:13:07.401Z,25.09
2023-05-05T02:14:07.345Z,25.09
2023-05-05T02:15:07.363Z,25.06
2023-05-05T02:16:07.406Z,25.08
2023-05-05T02:17:07.402Z,25.09
2023-05-05T02:18:07.422Z,25.11
2023-05-05T02:19:07.460Z,25.06
2023-05-05T02:20:07.703Z,25.08
2023-05-05T02:21:07.483Z,25.06
2023-05-05T02:22:07.505Z,25.08
2023-05-05T02:23:07.540Z,25.08
2023-05-05T02:24:07.543Z,25.03
2023-05-05T02:25:07.604Z,25.09
2023-05-05T02:26:07.622Z,25.08
2023-05-05T02:27:07.634Z,25.08
2023-05-05T02:28:07.690Z,25.06
2023-05-05T02:29:07.708Z,25.09
2023-05-05T02:30:07.982Z,25.09
2023-05-05T02:31:07.714Z,25.08
2023-05-05T02:32:07.754Z,25.08
2023-05-05T02:33:07.758Z,25.05
2023-05-05T02:34:07.763Z,25.09
2023-05-05T02:35:07.794Z,25.08
2023-05-05T02:36:07.826Z,25.08
2023-05-05T02:37:07.876Z,25.08
2023-05-05T02:38:07.904Z,25.05
2023-05-05T02:39:07.910Z,25.05
2023-05-05T02:40:08.120Z,25.05
2023-05-05T02:41:07.967Z,25.06
2023-05-05T02:42:07.978Z,25.06
2023-05-05T02:43:08.054Z,25.05
2023-05-05T02:44:08.020Z,25.05
2023-05-05T02:45:08.029Z,25.08
2023-05-05T02:46:08.121Z,25.06
2023-05-05T02:47:08.094Z,25.06
2023-05-05T02:48:08.295Z,25.05
2023-05-05T02:49:08.163Z,25.03
2023-05-05T02:50:08.237Z,25.05
2023-05-05T02:51:08.197Z,25.05
2023-05-05T02:52:08.206Z,25.05
2023-05-05T02:53:08.258Z,25.06
2023-05-05T02:54:08.281Z,25.06
2023-05-05T02:55:08.287Z,25.06
2023-05-05T02:56:08.340Z,25.02
2023-05-05T02:57:08.366Z,25.05
2023-05-05T02:58:08.428Z,25.03
2023-05-05T02:59:08.399Z,25.05
2023-05-05T03:00:08.603Z,25.03
2023-05-05T03:01:08.506Z,25.05
2023-05-05T03:02:08.477Z,25.05
2023-05-05T03:03:08.586Z,25.06
2023-05-05T03:04:08.548Z,25.05
2023-05-05T03:05:08.548Z,25.02
2023-05-05T03:06:08.581Z,25.03
2023-05-05T03:07:08.644Z,25.03
2023-05-05T03:08:08.658Z,25.05
2023-05-05T03:09:08.669Z,25.02
2023-05-05T03:10:08.890Z,25.02
2023-05-05T03:11:08.735Z,25.03
2023-05-05T03:12:08.780Z,24.99
2023-05-05T03:13:08.954Z,25.02
2023-05-05T03:14:08.868Z,25.02
2023-05-05T03:15:08.847Z,25.03
2023-05-05T03:16:08.947Z,25.01
2023-05-05T03:17:08.922Z,25.02
2023-05-05T03:18:08.942Z,24.99
2023-05-05T03:19:08.961Z,25.01
2023-05-05T03:20:09.079Z,25.03
2023-05-05T03:21:09.064Z,25.03
2023-05-05T03:22:09.064Z,24.99
2023-05-05T03:23:09.071Z,25.01
2023-05-05T03:24:09.103Z,25.02
2023-05-05T03:25:09.126Z,25.02
2023-05-05T03:26:09.150Z,25.03
2023-05-05T03:27:09.178Z,24.99
2023-05-05T03:28:09.185Z,25.02
2023-05-05T03:29:09.197Z,25.02
2023-05-05T03:30:09.541Z,25.01
2023-05-05T03:31:09.273Z,25.02
2023-05-05T03:32:09.366Z,25.01
2023-05-05T03:33:09.387Z,25.01
2023-05-05T03:34:09.356Z,25.02
2023-05-05T03:35:09.353Z,25.01
2023-05-05T03:36:09.379Z,24.99
2023-05-05T03:37:09.396Z,25.02
2023-05-05T03:38:09.418Z,24.98
2023-05-05T03:39:09.450Z,24.99
2023-05-05T03:40:09.595Z,25.01
2023-05-05T03:41:09.522Z,25.02
2023-05-05T03:42:09.549Z,24.99
2023-05-05T03:43:09.566Z,24.99
2023-05-05T03:44:09.584Z,24.96
2023-05-05T03:45:09.601Z,24.96
2023-05-05T03:46:09.678Z,24.96
2023-05-05T03:47:09.702Z,24.98
2023-05-05T03:48:09.791Z,24.96
2023-05-05T03:49:09.744Z,24.98
2023-05-05T03:50:09.855Z,24.98
2023-05-05T03:51:09.800Z,24.98
2023-05-05T03:52:09.838Z,25.01
2023-05-05T03:53:09.868Z,24.96
2023-05-05T03:54:09.917Z,24.98
2023-05-05T03:55:09.939Z,24.96
2023-05-05T03:56:09.958Z,24.98
2023-05-05T03:57:09.989Z,24.96
2023-05-05T03:58:10.035Z,24.95
2023-05-05T03:59:10.075Z,24.96
2023-05-05T04:00:10.093Z,24.96
2023-05-05T04:01:10.109Z,24.96
2023-05-05T04:02:10.153Z,24.98
2023-05-05T04:03:10.408Z,24.95
2023-05-05T04:04:10.211Z,24.96
2023-05-05T04:05:10.227Z,24.99
2023-05-05T04:06:10.253Z,24.96
2023-05-05T04:07:10.268Z,24.98
2023-05-05T04:08:10.329Z,24.96
2023-05-05T04:09:10.358Z,24.98
2023-05-05T04:10:10.621Z,24.96
2023-05-05T04:11:10.394Z,24.96
2023-05-05T04:12:10.464Z,24.99
2023-05-05T04:13:10.540Z,24.96
2023-05-05T04:14:10.501Z,24.99
2023-05-05T04:15:10.522Z,24.99
2023-05-05T04:16:10.550Z,25.01
2023-05-05T04:17:10.560Z,24.98
2023-05-05T04:18:10.654Z,24.99
2023-05-05T04:19:10.968Z,24.98
2023-05-05T04:20:10.848Z,24.96
2023-05-05T04:21:10.670Z,24.99
2023-05-05T04:22:10.703Z,24.98
2023-05-05T04:23:10.731Z,24.96
2023-05-05T04:24:10.745Z,24.95
2023-05-05T04:25:10.776Z,24.96
2023-05-05T04:26:10.840Z,24.99
2023-05-05T04:27:10.871Z,24.98
2023-05-05T04:28:10.862Z,24.98
2023-05-05T04:29:10.895Z,24.96
2023-05-05T04:30:10.931Z,24.96
2023-05-05T04:31:11.022Z,24.98
2023-05-05T04:32:10.998Z,24.96
2023-05-05T04:33:11.027Z,24.98
2023-05-05T04:34:11.058Z,24.99
2023-05-05T04:35:11.058Z,24.96
2023-05-05T04:36:11.153Z,24.98
2023-05-05T04:37:11.138Z,24.98
2023-05-05T04:38:11.193Z,24.96
2023-05-05T04:39:11.230Z,24.98
2023-05-05T04:40:11.248Z,24.98
2023-05-05T04:41:11.267Z,24.99
2023-05-05T04:42:11.274Z,24.98
2023-05-05T04:43:11.315Z,24.99
2023-05-05T04:44:11.333Z,24.98
2023-05-05T04:45:11.386Z,24.96
2023-05-05T04:46:11.425Z,25.01
2023-05-05T04:47:13.212Z,24.99
2023-05-05T04:48:11.424Z,24.96
2023-05-05T04:49:11.405Z,24.98
2023-05-05T04:50:11.488Z,24.96
2023-05-05T04:51:11.394Z,24.98
2023-05-05T04:52:11.403Z,25.01
2023-05-05T04:53:11.399Z,25.01
2023-05-05T04:54:11.370Z,24.98
2023-05-05T04:55:11.367Z,25.01
2023-05-05T04:56:11.399Z,24.99
2023-05-05T04:57:11.361Z,25.01
2023-05-05T04:58:11.391Z,25.02
2023-05-05T04:59:11.332Z,25.02
2023-05-05T05:00:11.540Z,25.01
2023-05-05T05:01:11.328Z,25.01
2023-05-05T05:02:11.368Z,25.01
2023-05-05T05:03:11.360Z,25.02
2023-05-05T05:04:11.326Z,25.02
2023-05-05T05:05:11.306Z,25.01
2023-05-05T05:06:11.295Z,25.01
2023-05-05T05:07:11.271Z,25.02
2023-05-05T05:08:11.305Z,25.01
2023-05-05T05:09:11.245Z,25.03
2023-05-05T05:10:11.336Z,25.01
2023-05-05T05:11:11.256Z,25.02
2023-05-05T05:12:11.263Z,25.02
2023-05-05T05:13:12.692Z,25.03
2023-05-05T05:14:11.263Z,25.03
2023-05-05T05:15:11.224Z,25.06
2023-05-05T05:16:11.284Z,25.03
2023-05-05T05:17:11.192Z,25.05
2023-05-05T05:18:11.179Z,25.02
2023-05-05T05:19:11.202Z,25.03
2023-05-05T05:20:11.452Z,25.06
2023-05-05T05:21:11.403Z,25.03
2023-05-05T05:22:11.159Z,25.05
2023-05-05T05:23:11.233Z,25.03
2023-05-05T05:24:11.151Z,25.03
2023-05-05T05:25:11.127Z,25.05
2023-05-05T05:26:11.248Z,25.05
2023-05-05T05:27:12.012Z,25.03
2023-05-05T05:28:11.203Z,25.06
2023-05-05T05:29:11.134Z,25.06
2023-05-05T05:30:11.116Z,25.03
2023-05-05T05:31:11.169Z,25.05
2023-05-05T05:32:11.136Z,25.02
2023-05-05T05:33:11.187Z,25.05
2023-05-05T05:34:12.717Z,25.05
2023-05-05T05:35:11.139Z,25.02
2023-05-05T05:36:11.179Z,25.02
2023-05-05T05:37:11.304Z,25.05
2023-05-05T05:38:11.202Z,25.06
2023-05-05T05:39:11.230Z,25.11
2023-05-05T05:40:11.298Z,25.13
2023-05-05T05:41:11.326Z,25.13
2023-05-05T05:42:11.307Z,25.15
2023-05-05T05:43:11.343Z,25.18
2023-05-05T05:44:11.316Z,25.16
2023-05-05T05:45:11.326Z,25.18
2023-05-05T05:46:11.457Z,25.22
2023-05-05T05:47:11.770Z,25.26
2023-05-05T05:48:11.611Z,25.29
2023-05-05T05:49:11.620Z,25.30
2023-05-05T05:50:11.609Z,25.35
2023-05-05T05:51:11.649Z,25.33
2023-05-05T05:52:11.673Z,25.36
2023-05-05T05:53:11.683Z,25.36
2023-05-05T05:54:11.724Z,25.36
2023-05-05T05:55:11.854Z,25.37
2023-05-05T05:56:11.809Z,25.35
2023-05-05T05:57:11.807Z,25.36
2023-05-05T05:58:11.885Z,25.37
2023-05-05T05:59:11.802Z,25.36
2023-05-05T06:00:12.438Z,25.36
2023-05-05T06:01:11.796Z,25.35
2023-05-05T06:02:11.875Z,25.36
2023-05-05T06:03:11.914Z,25.32
2023-05-05T06:04:11.873Z,25.33
2023-05-05T06:05:11.803Z,25.33
2023-05-05T06:06:11.881Z,25.35
2023-05-05T06:07:12.414Z,25.30
2023-05-05T06:08:11.956Z,25.33
2023-05-05T06:09:11.978Z,25.29
2023-05-05T06:10:25.833Z,25.32
2023-05-05T06:11:12.954Z,25.29
2023-05-05T06:12:11.974Z,25.29
2023-05-05T06:13:12.027Z,25.29
2023-05-05T06:14:11.930Z,25.33
2023-05-05T06:15:11.930Z,25.29
2023-05-05T06:16:11.918Z,25.29
2023-05-05T06:17:11.955Z,25.29
2023-05-05T06:18:11.944Z,25.30
2023-05-05T06:19:11.989Z,25.26
2023-05-05T06:20:11.883Z,25.29
2023-05-05T06:21:11.912Z,25.26
2023-05-05T06:22:11.888Z,25.26
2023-05-05T06:23:11.878Z,25.28
2023-05-05T06:24:11.931Z,25.28
2023-05-05T06:25:11.841Z,25.26
2023-05-05T06:26:11.832Z,25.26
2023-05-05T06:27:11.836Z,25.26
2023-05-05T06:28:11.874Z,25.26
2023-05-05T06:29:12.429Z,25.26
2023-05-05T06:30:11.864Z,25.23
2023-05-05T06:31:11.886Z,25.28
2023-05-05T06:32:11.920Z,25.28
2023-05-05T06:33:11.877Z,25.29
2023-05-05T06:34:11.905Z,25.23
2023-05-05T06:35:11.987Z,25.25
2023-05-05T06:36:12.128Z,25.26
2023-05-05T06:37:12.095Z,25.23
2023-05-05T06:38:12.129Z,25.26
2023-05-05T06:39:14.024Z,25.26
2023-05-05T06:40:12.122Z,25.28
2023-05-05T06:41:12.079Z,25.32
2023-05-05T06:42:12.086Z,25.37
2023-05-05T06:43:12.051Z,25.37
2023-05-05T06:44:12.055Z,25.44
2023-05-05T06:45:12.048Z,25.50
2023-05-05T06:46:12.046Z,25.53
2023-05-05T06:47:12.453Z,25.54
2023-05-05T06:48:14.910Z,25.59
2023-05-05T06:49:12.037Z,25.62
2023-05-05T06:50:12.037Z,25.66
2023-05-05T06:51:12.010Z,25.69
2023-05-05T06:52:12.072Z,25.72
2023-05-05T06:53:11.992Z,25.74
2023-05-05T06:54:11.982Z,25.76
2023-05-05T06:55:11.978Z,25.81
2023-05-05T06:56:11.999Z,25.84
2023-05-05T06:57:12.021Z,25.84
2023-05-05T06:58:12.093Z,25.85
2023-05-05T06:59:11.998Z,25.81
2023-05-05T07:00:12.035Z,25.85
2023-05-05T07:01:11.964Z,25.83
2023-05-05T07:02:11.956Z,25.84
2023-05-05T07:03:12.071Z,25.83
2023-05-05T07:04:12.058Z,25.84
2023-05-05T07:05:11.974Z,25.84
2023-05-05T07:06:11.939Z,25.88
2023-05-05T07:07:11.956Z,25.88
2023-05-05T07:08:11.952Z,25.93
2023-05-05T07:09:11.905Z,25.93
2023-05-05T07:10:11.908Z,25.97
2023-05-05T07:11:11.868Z,25.93
2023-05-05T07:12:11.862Z,26.00
2023-05-05T07:13:11.947Z,26.00
2023-05-05T07:14:11.988Z,26.03
2023-05-05T07:15:26.033Z,26.05
2023-05-05T07:16:12.930Z,26.08
2023-05-05T07:17:11.821Z,26.09
2023-05-05T07:18:11.873Z,26.09
2023-05-05T07:19:11.822Z,26.14
2023-05-05T07:20:11.845Z,26.17
2023-05-05T07:21:11.796Z,26.15
2023-05-05T07:22:11.813Z,26.17
2023-05-05T07:23:11.795Z,26.20
2023-05-05T07:24:11.851Z,26.21
2023-05-05T07:25:11.778Z,26.21
2023-05-05T07:26:11.783Z,26.21
2023-05-05T07:27:11.763Z,26.24
2023-05-05T07:28:11.769Z,26.25
2023-05-05T07:29:11.990Z,26.25
2023-05-05T07:30:14.753Z,26.27
2023-05-05T07:31:12.861Z,26.30
2023-05-05T07:32:11.769Z,26.32
2023-05-05T07:33:11.752Z,26.34
2023-05-05T07:34:11.950Z,26.34
2023-05-05T07:35:11.729Z,26.34
2023-05-05T07:36:11.769Z,26.35
2023-05-05T07:37:11.690Z,26.34
2023-05-05T07:38:11.716Z,26.34
2023-05-05T07:39:11.686Z,26.35
2023-05-05T07:40:11.796Z,26.34
2023-05-05T07:41:11.672Z,26.32
2023-05-05T07:42:11.676Z,26.30
2023-05-05T07:43:11.646Z,26.31
2023-05-05T07:44:11.642Z,26.27
2023-05-05T07:45:11.655Z,26.27
2023-05-05T07:46:11.749Z,26.25
2023-05-05T07:47:11.659Z,26.21
2023-05-05T07:48:11.662Z,26.18
2023-05-05T07:49:11.672Z,26.18
2023-05-05T07:50:11.755Z,26.14
2023-05-05T07:51:11.755Z,26.14
2023-05-05T07:52:11.717Z,26.09
2023-05-05T07:53:14.917Z,26.09
2023-05-05T07:54:11.693Z,26.08
2023-05-05T07:55:11.708Z,26.07
2023-05-05T07:56:11.674Z,26.01
2023-05-05T07:57:11.650Z,26.04
2023-05-05T07:58:11.682Z,26.01
2023-05-05T07:59:11.684Z,26.00
2023-05-05T08:00:11.776Z,26.01
2023-05-05T08:01:11.627Z,25.98
2023-05-05T08:02:11.767Z,25.98
2023-05-05T08:03:12.300Z,26.01
2023-05-05T08:04:11.678Z,25.97
2023-05-05T08:05:11.704Z,26.00
2023-05-05T08:06:11.612Z,26.01
2023-05-05T08:07:11.580Z,25.98
2023-05-05T08:08:11.595Z,25.98
2023-05-05T08:09:11.656Z,25.98
2023-05-05T08:10:11.584Z,26.00
2023-05-05T08:11:11.575Z,26.03
2023-05-05T08:12:11.976Z,26.03
2023-05-05T08:13:11.556Z,26.03
2023-05-05T08:14:11.533Z,26.04
2023-05-05T08:15:11.656Z,26.05
2023-05-05T08:16:11.534Z,26.07
2023-05-05T08:17:11.528Z,26.09
2023-05-05T08:18:11.593Z,26.08
2023-05-05T08:19:21.542Z,26.13
2023-05-05T08:20:12.489Z,26.13
2023-05-05T08:21:11.484Z,26.13
2023-05-05T08:22:11.494Z,26.15
2023-05-05T08:23:11.570Z,26.14
2023-05-05T08:24:11.471Z,26.18
2023-05-05T08:25:11.477Z,26.18
2023-05-05T08:26:11.447Z,26.18
2023-05-05T08:27:11.460Z,26.23
2023-05-05T08:28:11.490Z,26.20
2023-05-05T08:29:11.533Z,26.23
2023-05-05T08:30:12.020Z,26.24
2023-05-05T08:31:11.445Z,26.24
2023-05-05T08:32:11.417Z,26.25
2023-05-05T08:33:11.459Z,26.23
2023-05-05T08:34:11.517Z,26.23
2023-05-05T08:35:11.999Z,26.24
2023-05-05T08:36:11.429Z,26.21
2023-05-05T08:37:11.395Z,26.24
2023-05-05T08:38:11.486Z,26.21
2023-05-05T08:39:11.392Z,26.20
2023-05-05T08:40:11.391Z,26.20
2023-05-05T08:41:11.392Z,26.18
2023-05-05T08:42:11.400Z,26.13
2023-05-05T08:43:11.346Z,26.17
2023-05-05T08:44:11.532Z,26.17
2023-05-05T08:45:11.597Z,26.17
2023-05-05T08:46:11.375Z,26.24
2023-05-05T08:47:11.366Z,26.24
2023-05-05T08:48:11.340Z,26.30
2023-05-05T08:49:11.287Z,26.28
2023-05-05T08:50:11.334Z,26.35
2023-05-05T08:51:11.292Z,26.34
2023-05-05T08:52:11.349Z,26.36
2023-05-05T08:53:11.386Z,26.39
2023-05-05T08:54:11.287Z,26.45
2023-05-05T08:55:11.255Z,26.46
2023-05-05T08:56:11.227Z,26.48
2023-05-05T08:57:11.253Z,26.49
2023-05-05T08:58:11.233Z,26.54
2023-05-05T08:59:11.264Z,26.55
2023-05-05T09:00:11.366Z,26.59
2023-05-05T09:01:11.433Z,26.59
2023-05-05T09:02:11.487Z,26.65
2023-05-05T09:03:11.751Z,26.65
2023-05-05T09:04:11.536Z,26.68
2023-05-05T09:05:11.563Z,26.69
2023-05-05T09:06:11.673Z,26.72
2023-05-05T09:07:11.681Z,26.75
2023-05-05T09:08:11.716Z,26.78
2023-05-05T09:09:11.723Z,26.81
2023-05-05T09:10:11.825Z,26.81
2023-05-05T09:11:11.805Z,26.82
2023-05-05T09:12:11.850Z,26.85
2023-05-05T09:13:11.881Z,26.82
2023-05-05T09:14:11.886Z,26.85
2023-05-05T09:15:11.932Z,26.89
2023-05-05T09:16:11.978Z,26.89
2023-05-05T09:17:11.967Z,26.93
2023-05-05T09:18:12.054Z,26.93
2023-05-05T09:19:12.048Z,26.95
2023-05-05T09:20:12.046Z,26.99
2023-05-05T09:21:12.050Z,26.97
2023-05-05T09:22:12.149Z,27.02
2023-05-05T09:23:12.130Z,27.02
2023-05-05T09:24:12.225Z,27.05
2023-05-05T09:25:12.173Z,27.07
2023-05-05T09:26:12.192Z,27.06
2023-05-05T09:27:12.201Z,27.07
2023-05-05T09:28:12.210Z,27.10
2023-05-05T09:29:12.199Z,27.11
2023-05-05T09:30:12.204Z,27.14
2023-05-05T09:31:12.401Z,27.11
2023-05-05T09:32:12.225Z,27.16
2023-05-05T09:33:12.300Z,27.17
2023-05-05T09:34:12.241Z,27.14
2023-05-05T09:35:12.384Z,27.18
2023-05-05T09:36:12.282Z,27.18
2023-05-05T09:37:12.249Z,27.22
2023-05-05T09:38:12.498Z,27.23
2023-05-05T09:39:12.271Z,27.24
2023-05-05T09:40:12.273Z,27.24
2023-05-05T09:41:12.298Z,27.27
2023-05-05T09:42:12.247Z,27.27
2023-05-05T09:43:12.320Z,27.26
2023-05-05T09:44:12.521Z,27.26
2023-05-05T09:45:12.277Z,27.24
2023-05-05T09:46:12.295Z,27.26
2023-05-05T09:47:25.907Z,27.23
2023-05-05T09:48:13.301Z,27.23
2023-05-05T09:49:12.331Z,27.20
2023-05-05T09:50:12.284Z,27.20
2023-05-05T09:51:12.359Z,27.20
2023-05-05T09:52:12.267Z,27.17
2023-05-05T09:53:12.252Z,27.16
2023-05-05T09:54:12.284Z,27.16
2023-05-05T09:55:12.251Z,27.13
2023-05-05T09:56:12.253Z,27.13
2023-05-05T09:57:12.255Z,27.10
2023-05-05T09:58:12.271Z,27.11
2023-05-05T09:59:12.229Z,27.11
2023-05-05T10:00:12.265Z,27.07
2023-05-05T10:01:12.250Z,27.05
2023-05-05T10:02:12.220Z,27.07
2023-05-05T10:03:12.213Z,27.05
2023-05-05T10:04:12.183Z,27.03
2023-05-05T10:05:12.262Z,27.05
2023-05-05T10:06:12.304Z,27.05
2023-05-05T10:07:12.307Z,27.00
2023-05-05T10:08:12.433Z,27.02
2023-05-05T10:09:12.421Z,26.99
2023-05-05T10:10:12.530Z,26.97
2023-05-05T10:11:12.494Z,27.00
2023-05-05T10:12:12.566Z,26.97
2023-05-05T10:13:12.707Z,26.97
2023-05-05T10:14:12.701Z,26.97
2023-05-05T10:15:12.722Z,26.96
2023-05-05T10:16:12.781Z,26.93
2023-05-05T10:17:12.797Z,26.97
2023-05-05T10:18:12.983Z,26.97
2023-05-05T10:19:12.932Z,26.99
2023-05-05T10:20:12.939Z,27.02
2023-05-05T10:21:12.945Z,27.03
2023-05-05T10:22:12.996Z,27.07
2023-05-05T10:23:13.056Z,27.06
2023-05-05T10:24:13.083Z,27.10
2023-05-05T10:25:13.050Z,27.13
2023-05-05T10:26:13.071Z,27.14
2023-05-05T10:27:13.117Z,27.16
2023-05-05T10:28:13.520Z,27.17
2023-05-05T10:29:13.087Z,27.22
2023-05-05T10:30:13.098Z,27.22
2023-05-05T10:31:24.176Z,27.23
2023-05-05T10:32:40.826Z,27.26
2023-05-05T10:33:30.280Z,27.26
2023-05-05T10:34:14.131Z,27.30
2023-05-05T10:35:13.093Z,27.32
2023-05-05T10:36:13.118Z,27.33
2023-05-05T10:37:13.107Z,27.36
2023-05-05T10:38:13.096Z,27.36
2023-05-05T10:39:13.077Z,27.36
2023-05-05T10:40:13.048Z,27.36
2023-05-05T10:41:13.043Z,27.37
2023-05-05T10:42:13.159Z,27.36
2023-05-05T10:43:13.524Z,27.37
2023-05-05T10:44:13.027Z,27.38
2023-05-05T10:45:13.046Z,27.38
2023-05-05T10:46:13.102Z,27.37
2023-05-05T10:47:13.156Z,27.41
2023-05-05T10:48:13.157Z,27.38
2023-05-05T10:49:13.513Z,27.38
2023-05-05T10:50:13.059Z,27.38
2023-05-05T10:51:15.426Z,27.34
2023-05-05T10:52:13.974Z,27.33
2023-05-05T10:53:12.958Z,27.36
2023-05-05T10:54:13.074Z,27.33
2023-05-05T10:55:13.098Z,27.26
2023-05-05T10:56:12.935Z,27.30
2023-05-05T10:57:12.962Z,27.22
2023-05-05T10:58:12.977Z,27.20
2023-05-05T10:59:12.912Z,27.22
2023-05-05T11:00:15.035Z,27.22
2023-05-05T11:01:13.002Z,27.17
2023-05-05T11:02:13.048Z,27.20
2023-05-05T11:03:13.157Z,27.22
2023-05-05T11:04:13.148Z,27.02
2023-05-05T11:05:13.571Z,27.03
2023-05-05T11:06:13.257Z,27.07
2023-05-05T11:07:15.019Z,27.09
2023-05-05T11:08:13.426Z,27.10
2023-05-05T11:09:13.479Z,27.13
2023-05-05T11:10:13.509Z,27.16
2023-05-05T11:11:13.536Z,27.17
2023-05-05T11:12:13.685Z,27.18
2023-05-05T11:13:13.663Z,27.22
2023-05-05T11:14:13.901Z,27.26
2023-05-05T11:15:13.722Z,27.27
2023-05-05T11:16:13.794Z,27.30
2023-05-05T11:17:13.918Z,27.34
2023-05-05T11:18:13.875Z,27.38
2023-05-05T11:19:13.850Z,27.40
2023-05-05T11:20:13.973Z,27.44
2023-05-05T11:21:14.008Z,27.46
2023-05-05T11:22:13.997Z,27.44
2023-05-05T11:23:16.567Z,27.47
2023-05-05T11:24:14.363Z,27.48
2023-05-05T11:25:14.404Z,27.50
2023-05-05T11:26:14.415Z,27.50
2023-05-05T11:27:14.459Z,27.50
2023-05-05T11:28:14.583Z,27.50
2023-05-05T11:29:14.588Z,27.46
2023-05-05T11:30:14.740Z,27.50
2023-05-05T11:31:14.677Z,27.46
2023-05-05T11:32:14.690Z,27.51
2023-05-05T11:33:14.699Z,27.46
2023-05-05T11:34:14.725Z,27.43
2023-05-05T11:35:14.718Z,27.44
2023-05-05T11:36:14.700Z,27.44
2023-05-05T11:37:14.701Z,27.40
2023-05-05T11:38:14.711Z,27.43
2023-05-05T11:39:14.703Z,27.40
2023-05-05T11:40:14.703Z,27.37
2023-05-05T11:41:14.712Z,27.37
2023-05-05T11:42:14.710Z,27.38
2023-05-05T11:43:14.694Z,27.33
2023-05-05T11:44:14.719Z,27.33
2023-05-05T11:45:14.734Z,27.33
2023-05-05T11:46:14.789Z,27.32
2023-05-05T11:47:14.741Z,27.29
2023-05-05T11:48:14.767Z,27.27
2023-05-05T11:49:14.756Z,27.30
2023-05-05T11:50:14.763Z,27.27
2023-05-05T11:51:14.751Z,27.27
2023-05-05T11:52:14.746Z,27.27
2023-05-05T11:53:14.785Z,27.24
2023-05-05T11:54:14.761Z,27.26
2023-05-05T11:55:14.804Z,27.24
2023-05-05T11:56:14.768Z,27.27
2023-05-05T11:57:14.803Z,27.24
2023-05-05T11:58:14.817Z,27.22
2023-05-05T11:59:14.821Z,27.22
2023-05-05T12:00:14.830Z,27.23
2023-05-05T12:01:14.872Z,27.20
2023-05-05T12:02:14.993Z,27.20
2023-05-05T12:03:14.977Z,27.17
2023-05-05T12:04:14.983Z,27.22
2023-05-05T12:05:14.909Z,27.18
2023-05-05T12:06:14.924Z,27.16
2023-05-05T12:07:14.979Z,27.17
2023-05-05T12:08:14.992Z,27.16
2023-05-05T12:09:14.959Z,27.16
2023-05-05T12:10:15.011Z,27.14
2023-05-05T12:11:15.005Z,27.14
2023-05-05T12:12:15.022Z,27.14
2023-05-05T12:13:15.096Z,27.14
2023-05-05T12:14:15.069Z,27.13
2023-05-05T12:15:15.096Z,27.13
2023-05-05T12:16:15.121Z,27.14
2023-05-05T12:17:15.130Z,27.13
2023-05-05T12:18:15.203Z,27.13
2023-05-05T12:19:15.150Z,27.14
2023-05-05T12:20:15.172Z,27.14
2023-05-05T12:21:15.207Z,27.14
2023-05-05T12:22:15.210Z,27.13
2023-05-05T12:23:15.587Z,27.11
2023-05-05T12:24:15.307Z,27.11
2023-05-05T12:25:15.283Z,27.13
2023-05-05T12:26:15.282Z,27.13
2023-05-05T12:27:15.319Z,27.10
2023-05-05T12:28:15.377Z,27.11
2023-05-05T12:29:15.394Z,27.10
2023-05-05T12:30:15.414Z,27.09
2023-05-05T12:31:15.477Z,27.10
2023-05-05T12:32:15.451Z,27.09
2023-05-05T12:33:15.438Z,27.09
2023-05-05T12:34:15.490Z,27.10
2023-05-05T12:35:15.458Z,27.09
2023-05-05T12:36:15.490Z,27.09
2023-05-05T12:37:15.514Z,27.10
2023-05-05T12:38:15.530Z,27.07
2023-05-05T12:39:15.584Z,27.10
2023-05-05T12:40:15.588Z,27.09
2023-05-05T12:41:15.614Z,27.09
2023-05-05T12:42:15.663Z,27.10
2023-05-05T12:43:15.766Z,27.09
2023-05-05T12:44:15.698Z,27.10
2023-05-05T12:45:15.690Z,27.10
2023-05-05T12:46:15.847Z,27.09
2023-05-05T12:47:15.739Z,27.10
2023-05-05T12:48:15.763Z,27.09
2023-05-05T12:49:15.784Z,27.10
2023-05-05T12:50:16.104Z,27.11
2023-05-05T12:51:15.835Z,27.09
2023-05-05T12:52:15.911Z,27.09